sensor_id;sensor_type;location;lat;lon;timestamp;P1;P2;P0
74880;PMS5003;63427;49.654;6.596;2024-03-02T00:01:59;2;2;
74880;PMS5003;63427;49.654;6.596;2024-03-02T00:04:24;2;2;
74880;PMS5003;63427;49.654;6.596;2024-03-02T00:09:22;2;1;
74880;PMS5003;63427;49.654;6.596;2024-03-02T00:11:41;4;4;
74880;PMS5003;63427;49.654;6.596;2024-03-02T00:14:07;2;2;
74880;PMS5003;63427;49.654;6.596;2024-03-02T00:16:32;2;2;
74880;PMS5003;63427;49.654;6.596;2024-03-02T00:19:01;4;4;
74880;PMS5003;63427;49.654;6.596;2024-03-02T00:21:24;1;1;
74880;PMS5003;63427;49.654;6.596;2024-03-02T00:23:49;1;1;
74880;PMS5003;63427;49.654;6.596;2024-03-02T00:26:20;3;2;
74880;PMS5003;63427;49.654;6.596;2024-03-02T00:28:40;4;4;
74880;PMS5003;63427;49.654;6.596;2024-03-02T00:31:06;2;2;
74880;PMS5003;63427;49.654;6.596;2024-03-02T00:33:32;2;2;
74880;PMS5003;63427;49.654;6.596;2024-03-02T00:36:02;2;2;
74880;PMS5003;63427;49.654;6.596;2024-03-02T00:38:22;3;3;
74880;PMS5003;63427;49.654;6.596;2024-03-02T00:40:48;2;2;
74880;PMS5003;63427;49.654;6.596;2024-03-02T00:45:39;3;2;
74880;PMS5003;63427;49.654;6.596;2024-03-02T00:48:06;2;2;
74880;PMS5003;63427;49.654;6.596;2024-03-02T00:50:33;1;1;
74880;PMS5003;63427;49.654;6.596;2024-03-02T00:52:56;5;4;
74880;PMS5003;63427;49.654;6.596;2024-03-02T00:55:21;2;2;
74880;PMS5003;63427;49.654;6.596;2024-03-02T00:57:47;2;2;
74880;PMS5003;63427;49.654;6.596;2024-03-02T01:00:13;2;2;
74880;PMS5003;63427;49.654;6.596;2024-03-02T01:05:04;2;2;
74880;PMS5003;63427;49.654;6.596;2024-03-02T01:09:55;1;1;
74880;PMS5003;63427;49.654;6.596;2024-03-02T01:14:46;4;4;
74880;PMS5003;63427;49.654;6.596;2024-03-02T01:17:12;1;1;
74880;PMS5003;63427;49.654;6.596;2024-03-02T01:19:37;2;2;
74880;PMS5003;63427;49.654;6.596;2024-03-02T01:22:03;3;3;
74880;PMS5003;63427;49.654;6.596;2024-03-02T01:24:28;2;2;
74880;PMS5003;63427;49.654;6.596;2024-03-02T01:26:54;2;2;
74880;PMS5003;63427;49.654;6.596;2024-03-02T01:29:20;1;1;
74880;PMS5003;63427;49.654;6.596;2024-03-02T01:31:45;2;2;
74880;PMS5003;63427;49.654;6.596;2024-03-02T01:34:11;2;2;
74880;PMS5003;63427;49.654;6.596;2024-03-02T01:36:36;3;3;
74880;PMS5003;63427;49.654;6.596;2024-03-02T01:39:02;2;2;
74880;PMS5003;63427;49.654;6.596;2024-03-02T01:41:31;2;2;
74880;PMS5003;63427;49.654;6.596;2024-03-02T01:43:53;1;1;
74880;PMS5003;63427;49.654;6.596;2024-03-02T01:46:19;4;3;
74880;PMS5003;63427;49.654;6.596;2024-03-02T01:48:44;3;3;
74880;PMS5003;63427;49.654;6.596;2024-03-02T01:51:10;2;2;
74880;PMS5003;63427;49.654;6.596;2024-03-02T01:53:36;3;3;
74880;PMS5003;63427;49.654;6.596;2024-03-02T01:56:01;3;2;
74880;PMS5003;63427;49.654;6.596;2024-03-02T01:58:27;2;2;
74880;PMS5003;63427;49.654;6.596;2024-03-02T02:01:05;2;2;
74880;PMS5003;63427;49.654;6.596;2024-03-02T02:03:18;3;3;
74880;PMS5003;63427;49.654;6.596;2024-03-02T02:05:44;2;2;
74880;PMS5003;63427;49.654;6.596;2024-03-02T02:08:09;3;3;
74880;PMS5003;63427;49.654;6.596;2024-03-02T02:10:35;1;0;
74880;PMS5003;63427;49.654;6.596;2024-03-02T02:13:01;3;3;
74880;PMS5003;63427;49.654;6.596;2024-03-02T02:17:52;2;2;
74880;PMS5003;63427;49.654;6.596;2024-03-02T02:20:18;2;2;
74880;PMS5003;63427;49.654;6.596;2024-03-02T02:25:08;3;3;
74880;PMS5003;63427;49.654;6.596;2024-03-02T02:27:34;1;1;
74880;PMS5003;63427;49.654;6.596;2024-03-02T02:30:01;2;2;
74880;PMS5003;63427;49.654;6.596;2024-03-02T02:32:25;2;2;
74880;PMS5003;63427;49.654;6.596;2024-03-02T02:39:42;2;2;
74880;PMS5003;63427;49.654;6.596;2024-03-02T02:42:07;3;3;
74880;PMS5003;63427;49.654;6.596;2024-03-02T02:44:33;1;1;
74880;PMS5003;63427;49.654;6.596;2024-03-02T02:49:24;4;4;
74880;PMS5003;63427;49.654;6.596;2024-03-02T02:52:13;3;3;
74880;PMS5003;63427;49.654;6.596;2024-03-02T02:54:15;6;5;
74880;PMS5003;63427;49.654;6.596;2024-03-02T02:56:41;3;3;
74880;PMS5003;63427;49.654;6.596;2024-03-02T02:59:06;3;3;
74880;PMS5003;63427;49.654;6.596;2024-03-02T03:03:57;2;2;
74880;PMS5003;63427;49.654;6.596;2024-03-02T03:06:23;3;3;
74880;PMS5003;63427;49.654;6.596;2024-03-02T03:08:48;3;3;
74880;PMS5003;63427;49.654;6.596;2024-03-02T03:11:14;3;3;
74880;PMS5003;63427;49.654;6.596;2024-03-02T03:13:51;2;2;
74880;PMS5003;63427;49.654;6.596;2024-03-02T03:16:05;3;3;
74880;PMS5003;63427;49.654;6.596;2024-03-02T03:18:31;3;3;
74880;PMS5003;63427;49.654;6.596;2024-03-02T03:20:57;2;2;
74880;PMS5003;63427;49.654;6.596;2024-03-02T03:23:47;2;1;
74880;PMS5003;63427;49.654;6.596;2024-03-02T03:25:48;3;3;
74880;PMS5003;63427;49.654;6.596;2024-03-02T03:28:13;3;3;
74880;PMS5003;63427;49.654;6.596;2024-03-02T03:30:39;1;1;
74880;PMS5003;63427;49.654;6.596;2024-03-02T03:33:05;2;2;
74880;PMS5003;63427;49.654;6.596;2024-03-02T03:35:30;3;3;
74880;PMS5003;63427;49.654;6.596;2024-03-02T03:37:56;3;3;
74880;PMS5003;63427;49.654;6.596;2024-03-02T03:40:21;5;4;
74880;PMS5003;63427;49.654;6.596;2024-03-02T03:42:47;3;3;
74880;PMS5003;63427;49.654;6.596;2024-03-02T03:45:12;4;4;
74880;PMS5003;63427;49.654;6.596;2024-03-02T03:47:38;3;3;
74880;PMS5003;63427;49.654;6.596;2024-03-02T03:50:06;5;4;
74880;PMS5003;63427;49.654;6.596;2024-03-02T03:54:55;4;3;
74880;PMS5003;63427;49.654;6.596;2024-03-02T03:57:20;4;4;
74880;PMS5003;63427;49.654;6.596;2024-03-02T03:59:46;3;3;
74880;PMS5003;63427;49.654;6.596;2024-03-02T04:02:12;3;3;
74880;PMS5003;63427;49.654;6.596;2024-03-02T04:04:37;5;5;
74880;PMS5003;63427;49.654;6.596;2024-03-02T04:07:03;5;4;
74880;PMS5003;63427;49.654;6.596;2024-03-02T04:09:28;4;4;
74880;PMS5003;63427;49.654;6.596;2024-03-02T04:11:54;4;4;
74880;PMS5003;63427;49.654;6.596;2024-03-02T04:14:20;3;3;
74880;PMS5003;63427;49.654;6.596;2024-03-02T04:19:11;3;3;
74880;PMS5003;63427;49.654;6.596;2024-03-02T04:21:36;4;4;
74880;PMS5003;63427;49.654;6.596;2024-03-02T04:24:02;4;4;
74880;PMS5003;63427;49.654;6.596;2024-03-02T04:26:28;4;4;
74880;PMS5003;63427;49.654;6.596;2024-03-02T04:28:53;4;4;
74880;PMS5003;63427;49.654;6.596;2024-03-02T04:31:19;4;4;
74880;PMS5003;63427;49.654;6.596;2024-03-02T04:33:44;3;3;
74880;PMS5003;63427;49.654;6.596;2024-03-02T04:41:06;4;4;
74880;PMS5003;63427;49.654;6.596;2024-03-02T04:48:18;4;4;
74880;PMS5003;63427;49.654;6.596;2024-03-02T04:50:44;3;3;
74880;PMS5003;63427;49.654;6.596;2024-03-02T04:53:09;4;4;
74880;PMS5003;63427;49.654;6.596;2024-03-02T05:00:26;3;3;
74880;PMS5003;63427;49.654;6.596;2024-03-02T05:02:52;4;3;
74880;PMS5003;63427;49.654;6.596;2024-03-02T05:07:43;2;2;
74880;PMS5003;63427;49.654;6.596;2024-03-02T05:15:01;2;2;
74880;PMS5003;63427;49.654;6.596;2024-03-02T05:17:25;2;2;
74880;PMS5003;63427;49.654;6.596;2024-03-02T05:19:51;3;3;
74880;PMS5003;63427;49.654;6.596;2024-03-02T05:22:17;2;2;
74880;PMS5003;63427;49.654;6.596;2024-03-02T05:24:42;3;2;
74880;PMS5003;63427;49.654;6.596;2024-03-02T05:27:08;1;1;
74880;PMS5003;63427;49.654;6.596;2024-03-02T05:29:33;1;1;
74880;PMS5003;63427;49.654;6.596;2024-03-02T05:31:59;2;2;
74880;PMS5003;63427;49.654;6.596;2024-03-02T05:36:50;3;2;
74880;PMS5003;63427;49.654;6.596;2024-03-02T05:39:16;2;2;
74880;PMS5003;63427;49.654;6.596;2024-03-02T05:41:42;2;2;
74880;PMS5003;63427;49.654;6.596;2024-03-02T05:44:07;4;4;
74880;PMS5003;63427;49.654;6.596;2024-03-02T05:46:33;3;3;
74880;PMS5003;63427;49.654;6.596;2024-03-02T05:51:24;4;4;
74880;PMS5003;63427;49.654;6.596;2024-03-02T05:53:50;4;4;
74880;PMS5003;63427;49.654;6.596;2024-03-02T05:56:15;2;2;
74880;PMS5003;63427;49.654;6.596;2024-03-02T05:58:41;3;3;
74880;PMS5003;63427;49.654;6.596;2024-03-02T06:01:06;2;2;
74880;PMS5003;63427;49.654;6.596;2024-03-02T06:03:32;3;3;
74880;PMS5003;63427;49.654;6.596;2024-03-02T06:05:58;2;2;
74880;PMS5003;63427;49.654;6.596;2024-03-02T06:08:23;3;3;
74880;PMS5003;63427;49.654;6.596;2024-03-02T06:10:49;3;3;
74880;PMS5003;63427;49.654;6.596;2024-03-02T06:13:15;2;2;
74880;PMS5003;63427;49.654;6.596;2024-03-02T06:15:40;3;3;
74880;PMS5003;63427;49.654;6.596;2024-03-02T06:18:06;3;3;
74880;PMS5003;63427;49.654;6.596;2024-03-02T06:20:31;3;3;
74880;PMS5003;63427;49.654;6.596;2024-03-02T06:22:57;4;4;
74880;PMS5003;63427;49.654;6.596;2024-03-02T06:25:23;3;3;
74880;PMS5003;63427;49.654;6.596;2024-03-02T06:27:48;4;3;
74880;PMS5003;63427;49.654;6.596;2024-03-02T06:30:14;4;3;
74880;PMS5003;63427;49.654;6.596;2024-03-02T06:32:39;2;2;
74880;PMS5003;63427;49.654;6.596;2024-03-02T06:35:06;2;2;
74880;PMS5003;63427;49.654;6.596;2024-03-02T06:37:31;3;3;
74880;PMS5003;63427;49.654;6.596;2024-03-02T06:39:56;2;2;
74880;PMS5003;63427;49.654;6.596;2024-03-02T06:42:22;4;4;
74880;PMS5003;63427;49.654;6.596;2024-03-02T06:44:48;2;2;
74880;PMS5003;63427;49.654;6.596;2024-03-02T06:47:13;2;2;
74880;PMS5003;63427;49.654;6.596;2024-03-02T06:49:40;2;2;
74880;PMS5003;63427;49.654;6.596;2024-03-02T06:52:05;3;2;
74880;PMS5003;63427;49.654;6.596;2024-03-02T06:54:30;2;2;
74880;PMS5003;63427;49.654;6.596;2024-03-02T06:56:56;3;3;
74880;PMS5003;63427;49.654;6.596;2024-03-02T06:59:21;3;3;
74880;PMS5003;63427;49.654;6.596;2024-03-02T07:01:47;3;2;
74880;PMS5003;63427;49.654;6.596;2024-03-02T07:04:13;3;3;
74880;PMS5003;63427;49.654;6.596;2024-03-02T07:06:38;3;3;
74880;PMS5003;63427;49.654;6.596;2024-03-02T07:09:04;4;3;
74880;PMS5003;63427;49.654;6.596;2024-03-02T07:11:30;4;4;
74880;PMS5003;63427;49.654;6.596;2024-03-02T07:13:55;5;5;
74880;PMS5003;63427;49.654;6.596;2024-03-02T07:16:21;4;4;
74880;PMS5003;63427;49.654;6.596;2024-03-02T07:18:46;3;3;
74880;PMS5003;63427;49.654;6.596;2024-03-02T07:21:12;4;4;
74880;PMS5003;63427;49.654;6.596;2024-03-02T07:23:38;7;7;
74880;PMS5003;63427;49.654;6.596;2024-03-02T07:26:03;5;4;
74880;PMS5003;63427;49.654;6.596;2024-03-02T07:33:20;5;5;
74880;PMS5003;63427;49.654;6.596;2024-03-02T07:35:45;6;6;
74880;PMS5003;63427;49.654;6.596;2024-03-02T07:38:11;5;5;
74880;PMS5003;63427;49.654;6.596;2024-03-02T07:40:36;7;7;
74880;PMS5003;63427;49.654;6.596;2024-03-02T07:43:02;7;7;
74880;PMS5003;63427;49.654;6.596;2024-03-02T07:45:27;6;6;
74880;PMS5003;63427;49.654;6.596;2024-03-02T07:47:53;9;9;
74880;PMS5003;63427;49.654;6.596;2024-03-02T07:50:19;6;6;
74880;PMS5003;63427;49.654;6.596;2024-03-02T07:52:44;8;8;
74880;PMS5003;63427;49.654;6.596;2024-03-02T07:55:09;16;15;
74880;PMS5003;63427;49.654;6.596;2024-03-02T07:57:35;16;16;
74880;PMS5003;63427;49.654;6.596;2024-03-02T08:00:01;6;6;
74880;PMS5003;63427;49.654;6.596;2024-03-02T08:02:26;8;8;
74880;PMS5003;63427;49.654;6.596;2024-03-02T08:04:51;8;8;
74880;PMS5003;63427;49.654;6.596;2024-03-02T08:07:17;6;5;
74880;PMS5003;63427;49.654;6.596;2024-03-02T08:09:43;6;5;
74880;PMS5003;63427;49.654;6.596;2024-03-02T08:14:34;5;5;
74880;PMS5003;63427;49.654;6.596;2024-03-02T08:16:59;5;4;
74880;PMS5003;63427;49.654;6.596;2024-03-02T08:19:25;4;4;
74880;PMS5003;63427;49.654;6.596;2024-03-02T08:21:50;7;6;
74880;PMS5003;63427;49.654;6.596;2024-03-02T08:24:16;6;6;
74880;PMS5003;63427;49.654;6.596;2024-03-02T08:26:41;4;4;
74880;PMS5003;63427;49.654;6.596;2024-03-02T08:29:07;8;8;
74880;PMS5003;63427;49.654;6.596;2024-03-02T08:33:58;4;4;
74880;PMS5003;63427;49.654;6.596;2024-03-02T08:36:23;8;8;
74880;PMS5003;63427;49.654;6.596;2024-03-02T08:38:49;11;9;
74880;PMS5003;63427;49.654;6.596;2024-03-02T08:41:14;5;5;
74880;PMS5003;63427;49.654;6.596;2024-03-02T08:43:40;5;4;
74880;PMS5003;63427;49.654;6.596;2024-03-02T08:46:13;5;5;
74880;PMS5003;63427;49.654;6.596;2024-03-02T08:48:30;4;4;
74880;PMS5003;63427;49.654;6.596;2024-03-02T08:50:57;5;5;
74880;PMS5003;63427;49.654;6.596;2024-03-02T08:53:22;5;5;
74880;PMS5003;63427;49.654;6.596;2024-03-02T09:00:38;4;4;
74880;PMS5003;63427;49.654;6.596;2024-03-02T09:03:04;6;5;
74880;PMS5003;63427;49.654;6.596;2024-03-02T09:07:54;3;3;
74880;PMS5003;63427;49.654;6.596;2024-03-02T09:10:20;6;6;
74880;PMS5003;63427;49.654;6.596;2024-03-02T09:15:10;6;6;
74880;PMS5003;63427;49.654;6.596;2024-03-02T09:17:36;3;3;
74880;PMS5003;63427;49.654;6.596;2024-03-02T09:20:01;4;4;
74880;PMS5003;63427;49.654;6.596;2024-03-02T09:22:27;6;5;
74880;PMS5003;63427;49.654;6.596;2024-03-02T09:25:06;6;6;
74880;PMS5003;63427;49.654;6.596;2024-03-02T09:27:19;1;1;
74880;PMS5003;63427;49.654;6.596;2024-03-02T09:29:43;4;4;
74880;PMS5003;63427;49.654;6.596;2024-03-02T09:32:11;4;4;
74880;PMS5003;63427;49.654;6.596;2024-03-02T09:34:34;6;5;
74880;PMS5003;63427;49.654;6.596;2024-03-02T09:36:59;4;4;
74880;PMS5003;63427;49.654;6.596;2024-03-02T09:39:25;4;4;
74880;PMS5003;63427;49.654;6.596;2024-03-02T09:41:50;5;5;
74880;PMS5003;63427;49.654;6.596;2024-03-02T09:44:16;4;4;
74880;PMS5003;63427;49.654;6.596;2024-03-02T09:46:41;4;4;
74880;PMS5003;63427;49.654;6.596;2024-03-02T09:49:07;6;6;
74880;PMS5003;63427;49.654;6.596;2024-03-02T09:51:32;6;5;
74880;PMS5003;63427;49.654;6.596;2024-03-02T09:53:57;6;5;
74880;PMS5003;63427;49.654;6.596;2024-03-02T09:56:23;6;6;
74880;PMS5003;63427;49.654;6.596;2024-03-02T09:58:49;11;11;
74880;PMS5003;63427;49.654;6.596;2024-03-02T10:01:14;12;12;
74880;PMS5003;63427;49.654;6.596;2024-03-02T10:03:39;12;12;
74880;PMS5003;63427;49.654;6.596;2024-03-02T10:08:33;5;5;
74880;PMS5003;63427;49.654;6.596;2024-03-02T10:10:55;5;5;
74880;PMS5003;63427;49.654;6.596;2024-03-02T10:13:21;6;6;
74880;PMS5003;63427;49.654;6.596;2024-03-02T10:15:46;4;4;
74880;PMS5003;63427;49.654;6.596;2024-03-02T10:18:11;4;3;
74880;PMS5003;63427;49.654;6.596;2024-03-02T10:20:37;3;3;
74880;PMS5003;63427;49.654;6.596;2024-03-02T10:23:10;2;2;
74880;PMS5003;63427;49.654;6.596;2024-03-02T10:25:29;3;3;
74880;PMS5003;63427;49.654;6.596;2024-03-02T10:27:52;2;2;
74880;PMS5003;63427;49.654;6.596;2024-03-02T10:30:18;5;4;
74880;PMS5003;63427;49.654;6.596;2024-03-02T10:32:43;3;3;
74880;PMS5003;63427;49.654;6.596;2024-03-02T10:35:08;2;2;
74880;PMS5003;63427;49.654;6.596;2024-03-02T10:37:33;4;4;
74880;PMS5003;63427;49.654;6.596;2024-03-02T10:42:24;3;3;
74880;PMS5003;63427;49.654;6.596;2024-03-02T10:44:49;1;1;
74880;PMS5003;63427;49.654;6.596;2024-03-02T10:47:16;4;4;
74880;PMS5003;63427;49.654;6.596;2024-03-02T10:49:41;5;5;
74880;PMS5003;63427;49.654;6.596;2024-03-02T10:52:05;4;4;
74880;PMS5003;63427;49.654;6.596;2024-03-02T10:54:30;5;5;
74880;PMS5003;63427;49.654;6.596;2024-03-02T10:56:56;5;4;
74880;PMS5003;63427;49.654;6.596;2024-03-02T10:59:24;4;4;
74880;PMS5003;63427;49.654;6.596;2024-03-02T11:01:47;5;5;
74880;PMS5003;63427;49.654;6.596;2024-03-02T11:04:11;5;5;
74880;PMS5003;63427;49.654;6.596;2024-03-02T11:06:36;3;3;
74880;PMS5003;63427;49.654;6.596;2024-03-02T11:09:02;5;5;
74880;PMS5003;63427;49.654;6.596;2024-03-02T11:11:27;5;5;
74880;PMS5003;63427;49.654;6.596;2024-03-02T11:13:52;8;7;
74880;PMS5003;63427;49.654;6.596;2024-03-02T11:18:43;4;4;
74880;PMS5003;63427;49.654;6.596;2024-03-02T11:21:11;3;3;
74880;PMS5003;63427;49.654;6.596;2024-03-02T11:30:49;5;4;
74880;PMS5003;63427;49.654;6.596;2024-03-02T11:33:15;4;4;
74880;PMS5003;63427;49.654;6.596;2024-03-02T11:40:30;2;2;
74880;PMS5003;63427;49.654;6.596;2024-03-02T11:47:46;5;4;
74880;PMS5003;63427;49.654;6.596;2024-03-02T11:52:36;4;4;
74880;PMS5003;63427;49.654;6.596;2024-03-02T11:55:01;3;3;
74880;PMS5003;63427;49.654;6.596;2024-03-02T11:59:51;5;4;
74880;PMS5003;63427;49.654;6.596;2024-03-02T12:04:47;4;4;
74880;PMS5003;63427;49.654;6.596;2024-03-02T12:07:07;2;2;
74880;PMS5003;63427;49.654;6.596;2024-03-02T12:09:32;3;3;
74880;PMS5003;63427;49.654;6.596;2024-03-02T12:14:22;1;1;
74880;PMS5003;63427;49.654;6.596;2024-03-02T12:19:12;2;2;
74880;PMS5003;63427;49.654;6.596;2024-03-02T12:21:37;2;2;
74880;PMS5003;63427;49.654;6.596;2024-03-02T12:24:02;0;0;
74880;PMS5003;63427;49.654;6.596;2024-03-02T12:26:27;1;1;
74880;PMS5003;63427;49.654;6.596;2024-03-02T12:31:17;2;2;
74880;PMS5003;63427;49.654;6.596;2024-03-02T12:33:42;2;2;
74880;PMS5003;63427;49.654;6.596;2024-03-02T12:38:33;2;2;
74880;PMS5003;63427;49.654;6.596;2024-03-02T12:40:57;2;2;
74880;PMS5003;63427;49.654;6.596;2024-03-02T12:45:48;3;3;
74880;PMS5003;63427;49.654;6.596;2024-03-02T12:48:13;1;1;
74880;PMS5003;63427;49.654;6.596;2024-03-02T12:50:38;4;3;
74880;PMS5003;63427;49.654;6.596;2024-03-02T12:53:13;2;2;
74880;PMS5003;63427;49.654;6.596;2024-03-02T12:57:53;3;3;
74880;PMS5003;63427;49.654;6.596;2024-03-02T13:02:43;1;0;
74880;PMS5003;63427;49.654;6.596;2024-03-02T13:05:08;0;0;
74880;PMS5003;63427;49.654;6.596;2024-03-02T13:09:59;1;1;
74880;PMS5003;63427;49.654;6.596;2024-03-02T13:12:24;1;1;
74880;PMS5003;63427;49.654;6.596;2024-03-02T13:14:49;1;1;
74880;PMS5003;63427;49.654;6.596;2024-03-02T13:17:14;0;0;
74880;PMS5003;63427;49.654;6.596;2024-03-02T13:22:04;1;1;
74880;PMS5003;63427;49.654;6.596;2024-03-02T13:24:29;2;2;
74880;PMS5003;63427;49.654;6.596;2024-03-02T13:26:54;2;2;
74880;PMS5003;63427;49.654;6.596;2024-03-02T13:29:19;1;1;
74880;PMS5003;63427;49.654;6.596;2024-03-02T13:31:44;1;1;
74880;PMS5003;63427;49.654;6.596;2024-03-02T13:34:09;1;1;
74880;PMS5003;63427;49.654;6.596;2024-03-02T13:36:34;1;1;
74880;PMS5003;63427;49.654;6.596;2024-03-02T13:38:59;0;0;
74880;PMS5003;63427;49.654;6.596;2024-03-02T13:41:25;1;1;
74880;PMS5003;63427;49.654;6.596;2024-03-02T13:43:50;2;2;
74880;PMS5003;63427;49.654;6.596;2024-03-02T13:48:40;2;2;
74880;PMS5003;63427;49.654;6.596;2024-03-02T13:51:05;2;1;
74880;PMS5003;63427;49.654;6.596;2024-03-02T13:53:30;0;0;
74880;PMS5003;63427;49.654;6.596;2024-03-02T13:55:55;1;1;
74880;PMS5003;63427;49.654;6.596;2024-03-02T14:00:46;0;0;
74880;PMS5003;63427;49.654;6.596;2024-03-02T14:05:36;1;1;
74880;PMS5003;63427;49.654;6.596;2024-03-02T14:08:01;0;0;
74880;PMS5003;63427;49.654;6.596;2024-03-02T14:10:26;1;1;
74880;PMS5003;63427;49.654;6.596;2024-03-02T14:12:51;1;1;
74880;PMS5003;63427;49.654;6.596;2024-03-02T14:15:16;1;1;
74880;PMS5003;63427;49.654;6.596;2024-03-02T14:17:42;1;1;
74880;PMS5003;63427;49.654;6.596;2024-03-02T14:20:07;2;2;
74880;PMS5003;63427;49.654;6.596;2024-03-02T14:22:32;1;1;
74880;PMS5003;63427;49.654;6.596;2024-03-02T14:24:57;1;1;
74880;PMS5003;63427;49.654;6.596;2024-03-02T14:27:22;1;1;
74880;PMS5003;63427;49.654;6.596;2024-03-02T14:29:48;1;1;
74880;PMS5003;63427;49.654;6.596;2024-03-02T14:32:13;3;2;
74880;PMS5003;63427;49.654;6.596;2024-03-02T14:34:38;1;1;
74880;PMS5003;63427;49.654;6.596;2024-03-02T14:37:03;1;1;
74880;PMS5003;63427;49.654;6.596;2024-03-02T14:39:28;3;3;
74880;PMS5003;63427;49.654;6.596;2024-03-02T14:41:53;1;1;
74880;PMS5003;63427;49.654;6.596;2024-03-02T14:51:34;1;1;
74880;PMS5003;63427;49.654;6.596;2024-03-02T14:54:01;1;1;
74880;PMS5003;63427;49.654;6.596;2024-03-02T14:58:50;1;1;
74880;PMS5003;63427;49.654;6.596;2024-03-02T15:01:20;1;1;
74880;PMS5003;63427;49.654;6.596;2024-03-02T15:06:06;1;1;
74880;PMS5003;63427;49.654;6.596;2024-03-02T15:08:31;1;1;
74880;PMS5003;63427;49.654;6.596;2024-03-02T15:10:56;1;1;
74880;PMS5003;63427;49.654;6.596;2024-03-02T15:13:21;1;1;
74880;PMS5003;63427;49.654;6.596;2024-03-02T15:18:16;1;1;
74880;PMS5003;63427;49.654;6.596;2024-03-02T15:20:37;1;1;
74880;PMS5003;63427;49.654;6.596;2024-03-02T15:23:06;1;1;
74880;PMS5003;63427;49.654;6.596;2024-03-02T15:25:28;0;0;
74880;PMS5003;63427;49.654;6.596;2024-03-02T15:27:52;1;1;
74880;PMS5003;63427;49.654;6.596;2024-03-02T15:30:17;1;1;
74880;PMS5003;63427;49.654;6.596;2024-03-02T15:32:43;1;1;
74880;PMS5003;63427;49.654;6.596;2024-03-02T15:35:08;3;3;
74880;PMS5003;63427;49.654;6.596;2024-03-02T15:40:01;2;2;
74880;PMS5003;63427;49.654;6.596;2024-03-02T15:42:24;3;3;
74880;PMS5003;63427;49.654;6.596;2024-03-02T15:44:49;5;5;
74880;PMS5003;63427;49.654;6.596;2024-03-02T15:49:40;2;2;
74880;PMS5003;63427;49.654;6.596;2024-03-02T15:52:11;4;3;
74880;PMS5003;63427;49.654;6.596;2024-03-02T15:54:30;1;1;
74880;PMS5003;63427;49.654;6.596;2024-03-02T15:56:56;2;2;
74880;PMS5003;63427;49.654;6.596;2024-03-02T15:59:27;3;3;
74880;PMS5003;63427;49.654;6.596;2024-03-02T16:01:46;5;5;
74880;PMS5003;63427;49.654;6.596;2024-03-02T16:04:11;3;3;
74880;PMS5003;63427;49.654;6.596;2024-03-02T16:06:37;2;2;
74880;PMS5003;63427;49.654;6.596;2024-03-02T16:13:53;3;3;
74880;PMS5003;63427;49.654;6.596;2024-03-02T16:16:18;4;3;
74880;PMS5003;63427;49.654;6.596;2024-03-02T16:18:43;1;1;
74880;PMS5003;63427;49.654;6.596;2024-03-02T16:23:34;2;2;
74880;PMS5003;63427;49.654;6.596;2024-03-02T16:25:59;3;3;
74880;PMS5003;63427;49.654;6.596;2024-03-02T16:31:13;3;2;
74880;PMS5003;63427;49.654;6.596;2024-03-02T16:33:15;3;3;
74880;PMS5003;63427;49.654;6.596;2024-03-02T16:35:40;4;4;
74880;PMS5003;63427;49.654;6.596;2024-03-02T16:38:06;3;3;
74880;PMS5003;63427;49.654;6.596;2024-03-02T16:42:57;3;3;
74880;PMS5003;63427;49.654;6.596;2024-03-02T16:45:22;3;3;
74880;PMS5003;63427;49.654;6.596;2024-03-02T16:50:14;3;3;
74880;PMS5003;63427;49.654;6.596;2024-03-02T16:52:38;2;2;
74880;PMS5003;63427;49.654;6.596;2024-03-02T16:55:04;3;2;
74880;PMS5003;63427;49.654;6.596;2024-03-02T16:59:55;3;3;
74880;PMS5003;63427;49.654;6.596;2024-03-02T17:02:31;8;8;
74880;PMS5003;63427;49.654;6.596;2024-03-02T17:04:45;6;6;
74880;PMS5003;63427;49.654;6.596;2024-03-02T17:07:11;10;10;
74880;PMS5003;63427;49.654;6.596;2024-03-02T17:09:36;9;8;
74880;PMS5003;63427;49.654;6.596;2024-03-02T17:12:01;13;13;
74880;PMS5003;63427;49.654;6.596;2024-03-02T17:14:27;5;5;
74880;PMS5003;63427;49.654;6.596;2024-03-02T17:16:59;4;4;
74880;PMS5003;63427;49.654;6.596;2024-03-02T17:19:27;7;7;
74880;PMS5003;63427;49.654;6.596;2024-03-02T17:26:34;3;3;
74880;PMS5003;63427;49.654;6.596;2024-03-02T17:29:00;5;4;
74880;PMS5003;63427;49.654;6.596;2024-03-02T17:36:16;3;3;
74880;PMS5003;63427;49.654;6.596;2024-03-02T17:41:07;4;3;
74880;PMS5003;63427;49.654;6.596;2024-03-02T17:43:39;4;4;
74880;PMS5003;63427;49.654;6.596;2024-03-02T17:45:58;2;2;
74880;PMS5003;63427;49.654;6.596;2024-03-02T17:48:23;3;3;
74880;PMS5003;63427;49.654;6.596;2024-03-02T17:50:49;3;3;
74880;PMS5003;63427;49.654;6.596;2024-03-02T17:53:25;2;2;
74880;PMS5003;63427;49.654;6.596;2024-03-02T17:58:05;4;4;
74880;PMS5003;63427;49.654;6.596;2024-03-02T18:00:31;5;4;
74880;PMS5003;63427;49.654;6.596;2024-03-02T18:02:56;5;5;
74880;PMS5003;63427;49.654;6.596;2024-03-02T18:05:22;3;3;
74880;PMS5003;63427;49.654;6.596;2024-03-02T18:07:48;4;4;
74880;PMS5003;63427;49.654;6.596;2024-03-02T18:10:13;5;5;
74880;PMS5003;63427;49.654;6.596;2024-03-02T18:15:04;5;4;
74880;PMS5003;63427;49.654;6.596;2024-03-02T18:17:29;7;6;
74880;PMS5003;63427;49.654;6.596;2024-03-02T18:19:55;4;4;
74880;PMS5003;63427;49.654;6.596;2024-03-02T18:24:46;4;4;
74880;PMS5003;63427;49.654;6.596;2024-03-02T18:27:11;4;4;
74880;PMS5003;63427;49.654;6.596;2024-03-02T18:29:37;3;3;
74880;PMS5003;63427;49.654;6.596;2024-03-02T18:32:03;4;4;
74880;PMS5003;63427;49.654;6.596;2024-03-02T18:34:28;3;3;
74880;PMS5003;63427;49.654;6.596;2024-03-02T18:37:01;4;4;
74880;PMS5003;63427;49.654;6.596;2024-03-02T18:41:44;2;1;
74880;PMS5003;63427;49.654;6.596;2024-03-02T18:46:41;4;4;
74880;PMS5003;63427;49.654;6.596;2024-03-02T18:49:01;8;8;
74880;PMS5003;63427;49.654;6.596;2024-03-02T18:51:26;8;8;
74880;PMS5003;63427;49.654;6.596;2024-03-02T18:54:07;5;5;
74880;PMS5003;63427;49.654;6.596;2024-03-02T18:56:28;6;5;
74880;PMS5003;63427;49.654;6.596;2024-03-02T18:58:43;11;11;
74880;PMS5003;63427;49.654;6.596;2024-03-02T19:01:09;4;4;
74880;PMS5003;63427;49.654;6.596;2024-03-02T19:03:34;3;3;
74880;PMS5003;63427;49.654;6.596;2024-03-02T19:06:00;3;3;
74880;PMS5003;63427;49.654;6.596;2024-03-02T19:08:25;3;3;
74880;PMS5003;63427;49.654;6.596;2024-03-02T19:10:51;6;6;
74880;PMS5003;63427;49.654;6.596;2024-03-02T19:13:25;9;8;
74880;PMS5003;63427;49.654;6.596;2024-03-02T19:18:12;8;8;
74880;PMS5003;63427;49.654;6.596;2024-03-02T19:20:33;12;12;
74880;PMS5003;63427;49.654;6.596;2024-03-02T19:23:03;8;8;
74880;PMS5003;63427;49.654;6.596;2024-03-02T19:25:24;4;4;
74880;PMS5003;63427;49.654;6.596;2024-03-02T19:32:41;10;10;
74880;PMS5003;63427;49.654;6.596;2024-03-02T19:35:07;9;8;
74880;PMS5003;63427;49.654;6.596;2024-03-02T19:39:57;7;7;
74880;PMS5003;63427;49.654;6.596;2024-03-02T19:42:23;3;3;
74880;PMS5003;63427;49.654;6.596;2024-03-02T19:44:48;6;6;
74880;PMS5003;63427;49.654;6.596;2024-03-02T19:49:39;6;5;
74880;PMS5003;63427;49.654;6.596;2024-03-02T19:52:07;3;3;
74880;PMS5003;63427;49.654;6.596;2024-03-02T19:54:36;4;4;
74880;PMS5003;63427;49.654;6.596;2024-03-02T19:56:56;4;4;
74880;PMS5003;63427;49.654;6.596;2024-03-02T19:59:21;3;3;
74880;PMS5003;63427;49.654;6.596;2024-03-02T20:01:47;3;3;
74880;PMS5003;63427;49.654;6.596;2024-03-02T20:04:12;3;3;
74880;PMS5003;63427;49.654;6.596;2024-03-02T20:09:13;3;3;
74880;PMS5003;63427;49.654;6.596;2024-03-02T20:11:30;3;3;